Time;durP1;ratioP1;P1;durP2;ratioP2;P2;SDS_P1;SDS_P2;PMS_P1;PMS_P2;Temp;Humidity;BMP_temperature;BMP_pressure;BME280_temperature;BME280_humidity;BME280_pressure;Samples;Min_cycle;Max_cycle;Signal;HPM_P1;HPM_P2
2023/01/09 00:01:19;;;;;;;17.52;9.27;;;8.70;89.50;;;;;;5092810;28;20031;-12
2023/01/09 00:03:45;;;;;;;16.85;7.50;;;8.70;89.60;;;;;;5091852;28;20107;-12
2023/01/09 00:06:11;;;;;;;17.35;8.63;;;8.70;89.50;;;;;;5093294;28;20123;-12
2023/01/09 00:08:37;;;;;;;19.95;9.60;;;8.80;89.40;;;;;;5092809;28;20497;-12
2023/01/09 00:11:03;;;;;;;16.85;8.60;;;8.80;89.40;;;;;;5091406;28;20030;-13
2023/01/09 00:13:29;;;;;;;18.52;9.40;;;8.90;89.50;;;;;;5092978;28;20096;-13
2023/01/09 00:15:55;;;;;;;19.23;9.30;;;8.90;89.60;;;;;;5092724;28;20031;-12
2023/01/09 00:18:21;;;;;;;17.23;9.30;;;8.90;89.70;;;;;;5092850;28;20027;-12
2023/01/09 00:20:47;;;;;;;16.23;8.88;;;8.90;89.90;;;;;;5092972;28;20028;-13
2023/01/09 00:23:13;;;;;;;16.35;8.73;;;8.90;89.90;;;;;;5092879;28;20028;-12
2023/01/09 00:25:39;;;;;;;16.75;9.20;;;9.00;89.80;;;;;;5092854;28;20545;-13
2023/01/09 00:28:05;;;;;;;16.45;8.60;;;9.00;89.70;;;;;;5093529;28;20039;-13
2023/01/09 00:30:31;;;;;;;15.77;8.55;;;9.00;89.80;;;;;;5092582;28;20024;-12
2023/01/09 00:32:57;;;;;;;17.08;8.77;;;9.00;89.90;;;;;;5092073;28;20044;-12
2023/01/09 00:35:27;;;;;;;16.77;8.60;;;9.00;89.90;;;;;;5091294;28;20059;-12
2023/01/09 00:37:53;;;;;;;16.27;8.10;;;9.00;89.70;;;;;;5091266;28;20107;-12
2023/01/09 00:40:20;;;;;;;14.10;8.15;;;9.00;89.70;;;;;;5092767;28;20103;-12
2023/01/09 00:42:50;;;;;;;17.23;8.82;;;9.00;89.80;;;;;;5092404;28;20078;-12
2023/01/09 00:45:27;;;;;;;18.50;9.13;;;9.00;89.80;;;;;;5092794;28;20012;-12
2023/01/09 00:47:53;;;;;;;20.00;9.45;;;9.00;89.80;;;;;;5092496;28;20032;-12
2023/01/09 00:50:25;;;;;;;21.88;9.10;;;9.00;89.80;;;;;;5092740;28;20085;-12
2023/01/09 00:52:53;;;;;;;15.95;8.55;;;9.00;89.80;;;;;;5092215;28;20032;-12
2023/01/09 00:55:19;;;;;;;21.00;8.80;;;9.00;89.70;;;;;;5092370;28;20035;-13
2023/01/09 00:57:45;;;;;;;15.88;9.18;;;9.10;89.60;;;;;;5092814;28;20028;-12
2023/01/09 01:00:12;;;;;;;16.45;8.60;;;9.10;89.50;;;;;;5092466;28;20020;-12
2023/01/09 01:02:38;;;;;;;16.13;7.95;;;9.10;89.70;;;;;;5092440;28;20081;-13
2023/01/09 01:07:49;;;;;;;14.48;8.05;;;9.10;89.70;;;;;;5092707;28;20480;-12
2023/01/09 01:10:19;;;;;;;17.05;8.75;;;9.10;89.80;;;;;;5092393;28;20074;-12
2023/01/09 01:12:46;;;;;;;17.63;9.10;;;9.20;89.70;;;;;;5092275;28;20062;-12
2023/01/09 01:15:13;;;;;;;13.18;8.27;;;9.20;90.00;;;;;;5092707;28;20028;-12
2023/01/09 01:17:40;;;;;;;15.25;8.90;;;9.20;89.90;;;;;;5092215;28;20040;-12
2023/01/09 01:20:10;;;;;;;14.20;8.55;;;9.30;89.70;;;;;;5092624;28;20024;-13
2023/01/09 01:22:36;;;;;;;14.95;8.00;;;9.40;89.70;;;;;;5092364;28;20436;-12
2023/01/09 01:25:04;;;;;;;14.55;8.30;;;9.40;89.70;;;;;;5092092;28;20539;-12
2023/01/09 01:27:30;;;;;;;18.13;8.95;;;9.40;89.70;;;;;;5096043;28;20016;-13
2023/01/09 01:29:56;;;;;;;14.90;7.80;;;9.40;89.60;;;;;;5096311;28;20016;-13
2023/01/09 01:32:22;;;;;;;16.23;8.82;;;9.40;89.60;;;;;;5095825;28;20052;-13
2023/01/09 01:34:48;;;;;;;13.00;7.53;;;9.40;89.60;;;;;;5095881;28;20032;-12
2023/01/09 01:37:14;;;;;;;15.85;7.70;;;9.40;89.50;;;;;;5095997;28;20032;-12
2023/01/09 01:39:40;;;;;;;14.60;8.02;;;9.40;89.50;;;;;;5096291;28;20398;-12
2023/01/09 01:42:06;;;;;;;14.45;7.82;;;9.40;89.60;;;;;;5095974;28;20024;-12
2023/01/09 01:44:57;;;;;;;14.40;7.95;;;9.40;89.60;;;;;;5095673;28;20032;-12
2023/01/09 01:47:47;;;;;;;14.38;7.28;;;9.40;89.60;;;;;;5096163;28;20051;-13
2023/01/09 01:50:19;;;;;;;16.00;8.38;;;9.40;89.50;;;;;;5084552;28;20020;-11
2023/01/09 01:52:51;;;;;;;13.68;7.47;;;9.50;89.60;;;;;;5095282;28;20032;-12
2023/01/09 01:55:18;;;;;;;15.35;8.25;;;9.40;89.50;;;;;;5095679;28;20024;-12
2023/01/09 01:57:49;;;;;;;16.02;7.65;;;9.40;89.60;;;;;;5095427;28;20066;-11
2023/01/09 02:00:20;;;;;;;12.25;7.68;;;9.40;89.60;;;;;;5095445;28;20043;-12
2023/01/09 02:02:46;;;;;;;12.98;7.45;;;9.40;89.70;;;;;;5095155;28;20095;-11
2023/01/09 02:05:12;;;;;;;11.70;6.80;;;9.40;89.70;;;;;;5095522;28;20051;-11
2023/01/09 02:07:37;;;;;;;13.00;7.93;;;9.40;89.70;;;;;;5095595;28;20043;-12
2023/01/09 02:10:04;;;;;;;11.82;6.97;;;9.40;89.70;;;;;;5095107;28;20031;-11
2023/01/09 02:12:29;;;;;;;11.98;7.15;;;9.40;89.70;;;;;;5093776;28;20369;-11
2023/01/09 02:15:07;;;;;;;11.90;6.80;;;9.40;89.70;;;;;;5094867;28;20031;-13
2023/01/09 02:17:33;;;;;;;13.82;6.45;;;9.30;89.70;;;;;;5095317;28;20028;-11
2023/01/09 02:20:23;;;;;;;11.77;6.95;;;9.40;89.60;;;;;;5095300;28;20404;-12
2023/01/09 02:22:55;;;;;;;11.48;6.53;;;9.40;89.70;;;;;;5093369;28;20578;-11
2023/01/09 02:25:41;;;;;;;10.45;5.93;;;9.40;89.60;;;;;;5094998;28;20095;-12
2023/01/09 02:28:33;;;;;;;9.80;6.05;;;9.40;89.60;;;;;;5095280;28;20157;-12
2023/01/09 02:31:05;;;;;;;9.07;5.15;;;9.40;89.60;;;;;;5094431;28;20055;-12
2023/01/09 02:33:54;;;;;;;8.23;5.72;;;9.30;89.60;;;;;;5095676;28;20071;-12
2023/01/09 02:36:44;;;;;;;9.52;5.38;;;9.30;89.60;;;;;;5094335;28;20046;-12
2023/01/09 02:39:33;;;;;;;10.60;5.60;;;9.20;89.60;;;;;;5094930;28;20034;-12
2023/01/09 02:42:22;;;;;;;7.85;5.20;;;9.10;89.60;;;;;;5094857;28;20035;-12
2023/01/09 02:44:49;;;;;;;10.73;5.18;;;9.20;89.70;;;;;;5094370;28;20028;-13
2023/01/09 02:47:14;;;;;;;9.38;5.53;;;9.20;89.70;;;;;;5094918;28;20020;-12
2023/01/09 02:49:45;;;;;;;9.90;5.40;;;9.10;89.60;;;;;;5094726;28;20031;-12
2023/01/09 02:52:44;;;;;;;9.23;5.13;;;9.10;89.60;;;;;;5094761;28;20063;-12
2023/01/09 02:55:21;;;;;;;10.45;5.15;;;9.10;89.70;;;;;;5094063;28;20049;-13
2023/01/09 02:58:15;;;;;;;8.95;5.55;;;9.10;89.90;;;;;;5094997;28;20476;-12
2023/01/09 03:01:01;;;;;;;10.85;5.43;;;9.10;89.90;;;;;;5094197;28;20052;-12
2023/01/09 03:03:45;;;;;;;6.78;4.65;;;9.10;90.00;;;;;;5094214;28;20508;-13
2023/01/09 03:06:21;;;;;;;7.30;4.38;;;9.10;90.00;;;;;;5094175;28;20036;-12
2023/01/09 03:08:55;;;;;;;10.30;4.93;;;9.10;90.00;;;;;;5094145;28;20020;-13
2023/01/09 03:11:23;;;;;;;8.80;4.88;;;9.10;90.00;;;;;;5094345;28;20024;-12
2023/01/09 03:13:53;;;;;;;9.50;5.13;;;9.20;90.10;;;;;;5094200;28;20035;-12
2023/01/09 03:16:23;;;;;;;11.35;5.18;;;9.10;90.10;;;;;;5094204;28;20038;-13
2023/01/09 03:18:52;;;;;;;7.95;4.63;;;9.10;90.10;;;;;;5093895;28;20498;-11
2023/01/09 03:21:20;;;;;;;6.97;4.38;;;9.10;90.10;;;;;;5094096;28;20043;-12
2023/01/09 03:24:00;;;;;;;7.75;4.32;;;9.20;90.10;;;;;;5093994;28;20107;-12
2023/01/09 03:26:30;;;;;;;6.78;4.63;;;9.20;90.00;;;;;;5093877;28;20103;-13
2023/01/09 03:28:58;;;;;;;9.05;4.93;;;9.20;90.20;;;;;;5093766;28;20081;-12
2023/01/09 03:31:23;;;;;;;11.90;4.88;;;9.20;90.20;;;;;;5092085;28;20044;-12
2023/01/09 03:33:50;;;;;;;9.52;4.93;;;9.20;90.20;;;;;;5093837;28;20039;-12
2023/01/09 03:36:18;;;;;;;9.55;4.68;;;9.20;90.10;;;;;;5093511;28;20480;-12
2023/01/09 03:38:44;;;;;;;8.15;4.35;;;9.20;90.10;;;;;;5093370;28;20024;-11
2023/01/09 03:41:09;;;;;;;8.63;4.47;;;9.20;90.00;;;;;;5093130;28;20028;-12
2023/01/09 03:43:35;;;;;;;9.70;4.57;;;9.20;90.00;;;;;;5093672;28;20043;-12
2023/01/09 03:46:01;;;;;;;7.70;4.45;;;9.20;90.00;;;;;;5093566;28;20410;-11
2023/01/09 03:48:28;;;;;;;6.28;3.90;;;9.20;89.90;;;;;;5092920;28;20031;-12
2023/01/09 03:50:55;;;;;;;7.07;4.10;;;9.20;89.90;;;;;;5093111;28;20447;-13
2023/01/09 03:53:25;;;;;;;7.28;3.97;;;9.20;90.00;;;;;;5093433;28;20506;-10
2023/01/09 03:55:53;;;;;;;5.55;3.70;;;9.20;89.90;;;;;;5093232;28;20032;-12
2023/01/09 03:58:20;;;;;;;8.25;3.95;;;9.20;89.90;;;;;;5093875;28;20028;-11
2023/01/09 04:00:47;;;;;;;4.65;3.50;;;9.20;89.90;;;;;;5093369;28;20035;-14
2023/01/09 04:03:15;;;;;;;6.93;3.50;;;9.20;89.90;;;;;;5091749;28;20115;-12
2023/01/09 04:05:41;;;;;;;5.97;3.15;;;9.20;89.80;;;;;;5093240;28;20428;-11
2023/01/09 04:08:06;;;;;;;5.65;3.35;;;9.20;89.80;;;;;;5093047;28;20051;-11
2023/01/09 04:10:33;;;;;;;6.25;3.22;;;9.20;89.80;;;;;;5092900;28;20031;-11
2023/01/09 04:12:58;;;;;;;5.38;3.05;;;9.20;89.90;;;;;;5092749;28;20028;-13
2023/01/09 04:15:24;;;;;;;2.67;2.40;;;9.20;89.90;;;;;;5092735;28;20103;-12
2023/01/09 04:17:50;;;;;;;4.05;2.60;;;9.10;89.80;;;;;;5093129;28;20020;-11
2023/01/09 04:20:17;;;;;;;3.53;2.58;;;9.10;89.80;;;;;;5092993;28;20024;-12
2023/01/09 04:22:43;;;;;;;3.28;2.30;;;9.10;89.80;;;;;;5092786;28;20103;-12
2023/01/09 04:25:09;;;;;;;2.80;2.50;;;9.10;89.80;;;;;;5092523;28;20063;-12
2023/01/09 04:27:35;;;;;;;2.53;2.20;;;9.10;89.80;;;;;;5092863;28;20019;-12
2023/01/09 04:30:01;;;;;;;2.40;2.10;;;9.10;89.80;;;;;;5093072;28;20329;-12
2023/01/09 04:32:27;;;;;;;2.78;2.03;;;9.10;89.80;;;;;;5092398;28;20076;-11
2023/01/09 04:34:53;;;;;;;2.55;2.17;;;9.10;89.90;;;;;;5091162;28;20059;-11
2023/01/09 04:37:20;;;;;;;2.53;2.25;;;9.10;89.90;;;;;;5092330;28;20460;-11
2023/01/09 04:39:46;;;;;;;2.35;2.10;;;9.10;89.90;;;;;;5092795;28;20020;-11
2023/01/09 04:42:12;;;;;;;2.60;2.00;;;9.10;89.80;;;;;;5092017;28;20028;-12
2023/01/09 04:44:38;;;;;;;3.30;2.00;;;9.20;89.80;;;;;;5092905;28;20458;-12
2023/01/09 04:47:05;;;;;;;3.33;2.20;;;9.10;89.80;;;;;;5092204;28;20039;-12
2023/01/09 04:49:31;;;;;;;2.05;1.77;;;9.10;89.80;;;;;;5092826;28;20043;-12
2023/01/09 04:51:57;;;;;;;2.85;2.05;;;9.20;89.90;;;;;;5092691;28;20025;-12
2023/01/09 04:54:23;;;;;;;2.42;1.98;;;9.20;89.90;;;;;;5092486;28;20077;-12
2023/01/09 04:56:51;;;;;;;2.92;2.13;;;9.20;89.80;;;;;;5092666;28;20538;-12
2023/01/09 04:59:17;;;;;;;2.28;1.90;;;9.20;89.80;;;;;;5094625;28;20066;-11
2023/01/09 05:01:43;;;;;;;2.50;2.08;;;9.20;89.80;;;;;;5096307;28;20028;-11
2023/01/09 05:04:10;;;;;;;2.53;1.92;;;9.20;89.80;;;;;;5096366;28;20102;-12
2023/01/09 05:06:35;;;;;;;2.60;1.92;;;9.20;89.80;;;;;;5096612;28;20101;-11
2023/01/09 05:09:01;;;;;;;3.85;2.25;;;9.20;89.80;;;;;;5096101;28;20024;-12
2023/01/09 05:11:27;;;;;;;3.33;2.60;;;9.30;89.80;;;;;;5096293;28;20099;-11
2023/01/09 05:13:53;;;;;;;2.58;2.00;;;9.30;89.80;;;;;;5096439;28;20103;-11
2023/01/09 05:16:20;;;;;;;3.58;2.10;;;9.30;89.80;;;;;;5096370;28;20102;-13
2023/01/09 05:18:46;;;;;;;3.63;2.00;;;9.30;89.70;;;;;;5095884;28;20027;-13
2023/01/09 05:21:13;;;;;;;2.40;1.98;;;9.30;89.70;;;;;;5096103;28;20035;-12
2023/01/09 05:23:38;;;;;;;2.58;2.03;;;9.30;89.70;;;;;;5095968;28;20032;-12
2023/01/09 05:26:04;;;;;;;2.80;2.20;;;9.30;89.60;;;;;;5096484;28;20028;-14
2023/01/09 05:28:31;;;;;;;2.88;2.20;;;9.40;89.60;;;;;;5096336;28;20457;-12
2023/01/09 05:30:57;;;;;;;3.08;2.20;;;9.30;89.50;;;;;;5096078;28;20019;-13
2023/01/09 05:33:23;;;;;;;2.53;2.15;;;9.30;89.40;;;;;;5095740;28;20071;-13
2023/01/09 05:35:49;;;;;;;3.05;2.35;;;9.30;89.40;;;;;;5095869;28;20032;-13
2023/01/09 05:38:15;;;;;;;3.42;2.28;;;9.30;89.30;;;;;;5095778;28;20097;-13
2023/01/09 05:40:41;;;;;;;3.58;2.22;;;9.30;89.30;;;;;;5095767;28;20103;-14
2023/01/09 05:43:07;;;;;;;2.92;2.50;;;9.30;89.30;;;;;;5095728;28;20024;-13
2023/01/09 05:45:33;;;;;;;4.57;2.80;;;9.30;89.30;;;;;;5095543;28;20023;-14
2023/01/09 05:47:59;;;;;;;3.50;2.70;;;9.30;89.30;;;;;;5095458;28;20050;-12
2023/01/09 05:50:24;;;;;;;4.28;2.72;;;9.30;89.30;;;;;;5095517;28;20028;-13
2023/01/09 05:52:50;;;;;;;4.60;2.80;;;9.30;89.30;;;;;;5095213;28;20119;-13
2023/01/09 05:55:16;;;;;;;4.03;2.65;;;9.30;89.30;;;;;;5095609;28;20134;-13
2023/01/09 05:57:42;;;;;;;4.38;2.92;;;9.30;89.30;;;;;;5095334;28;20077;-14
2023/01/09 06:00:09;;;;;;;4.97;2.30;;;9.30;89.30;;;;;;5095384;28;20020;-10
2023/01/09 06:02:35;;;;;;;4.72;2.72;;;9.30;89.20;;;;;;5095322;28;20021;-13
2023/01/09 06:05:01;;;;;;;2.72;2.15;;;9.30;89.20;;;;;;5095097;28;20165;-12
2023/01/09 06:07:26;;;;;;;2.22;2.03;;;9.30;89.20;;;;;;5095303;28;20157;-11
2023/01/09 06:09:52;;;;;;;2.30;2.05;;;9.30;89.10;;;;;;5094776;28;20081;-12
2023/01/09 06:12:18;;;;;;;2.17;1.95;;;9.30;89.10;;;;;;5094775;28;20047;-12
2023/01/09 06:14:44;;;;;;;4.88;2.38;;;9.30;89.10;;;;;;5095026;28;20364;-13
2023/01/09 06:17:10;;;;;;;2.90;2.40;;;9.30;89.10;;;;;;5094622;28;20063;-12
2023/01/09 06:19:36;;;;;;;2.80;2.40;;;9.30;89.10;;;;;;5095545;28;20040;-12
2023/01/09 06:22:02;;;;;;;3.40;2.33;;;9.30;89.00;;;;;;5095003;28;20035;-12
2023/01/09 06:24:28;;;;;;;2.80;2.45;;;9.20;89.10;;;;;;5094955;28;20361;-12
2023/01/09 06:26:54;;;;;;;2.60;2.40;;;9.20;89.00;;;;;;5094589;28;20357;-15
2023/01/09 06:29:19;;;;;;;4.15;2.70;;;9.30;89.00;;;;;;5094735;28;20028;-14
2023/01/09 06:31:45;;;;;;;3.03;2.50;;;9.20;88.90;;;;;;5094357;28;20083;-13
2023/01/09 06:34:11;;;;;;;3.90;2.70;;;9.20;88.90;;;;;;5094631;28;20055;-13
2023/01/09 06:36:38;;;;;;;4.63;2.97;;;9.20;88.90;;;;;;5094469;28;20032;-13
2023/01/09 06:39:03;;;;;;;3.53;2.67;;;9.20;88.80;;;;;;5094287;28;20036;-14
2023/01/09 06:41:29;;;;;;;4.30;3.10;;;9.20;88.80;;;;;;5094828;28;20035;-13
2023/01/09 06:43:55;;;;;;;3.05;2.65;;;9.20;88.80;;;;;;5093272;28;20031;-13
2023/01/09 06:46:21;;;;;;;3.47;2.55;;;9.20;88.80;;;;;;5094532;28;20016;-12
2023/01/09 06:48:47;;;;;;;2.80;2.50;;;9.20;88.80;;;;;;5095154;28;20024;-13
2023/01/09 06:51:13;;;;;;;4.25;3.10;;;9.20;88.80;;;;;;5094259;28;20384;-13
2023/01/09 06:53:38;;;;;;;4.03;2.80;;;9.20;88.80;;;;;;5092913;28;20060;-13
2023/01/09 06:56:05;;;;;;;3.72;2.40;;;9.30;88.80;;;;;;5094149;28;20528;-13
2023/01/09 06:58:31;;;;;;;4.75;2.72;;;9.30;88.70;;;;;;5094486;28;20031;-16
2023/01/09 07:01:00;;;;;;;5.45;3.45;;;9.30;88.70;;;;;;5094029;28;20073;-14
2023/01/09 07:03:25;;;;;;;5.47;3.90;;;9.30;88.50;;;;;;5093994;28;20123;-12
2023/01/09 07:05:51;;;;;;;6.53;3.92;;;9.30;88.50;;;;;;5094237;28;20114;-13
2023/01/09 07:08:17;;;;;;;11.85;7.10;;;9.30;88.40;;;;;;5094104;28;20040;-12
2023/01/09 07:10:43;;;;;;;10.95;7.15;;;9.30;88.40;;;;;;5094035;28;20055;-12
2023/01/09 07:13:09;;;;;;;11.13;5.60;;;9.40;88.40;;;;;;5093984;28;20051;-12
2023/01/09 07:15:36;;;;;;;8.40;5.53;;;9.40;88.40;;;;;;5093858;28;20081;-12
2023/01/09 07:18:02;;;;;;;11.77;5.43;;;9.40;88.30;;;;;;5093774;28;20032;-12
2023/01/09 07:20:28;;;;;;;9.55;5.93;;;9.50;88.40;;;;;;5093845;28;20495;-13
2023/01/09 07:22:54;;;;;;;8.20;5.55;;;9.50;88.30;;;;;;5092310;28;20487;-12
2023/01/09 07:25:20;;;;;;;16.90;9.68;;;9.50;88.30;;;;;;5093722;28;20116;-12
2023/01/09 07:27:46;;;;;;;13.23;8.07;;;9.50;88.20;;;;;;5093977;28;20028;-12
2023/01/09 07:30:13;;;;;;;13.80;8.65;;;9.60;88.10;;;;;;5093966;28;20032;-13
2023/01/09 07:32:39;;;;;;;12.15;8.25;;;9.50;88.00;;;;;;5093507;28;20075;-12
2023/01/09 07:35:08;;;;;;;22.20;13.73;;;9.50;88.00;;;;;;5093268;28;20124;-13
2023/01/09 07:37:33;;;;;;;20.23;12.48;;;9.50;87.90;;;;;;5093893;28;20051;-13
2023/01/09 07:39:59;;;;;;;19.52;13.48;;;9.50;87.90;;;;;;5093640;28;20403;-13
2023/01/09 07:42:25;;;;;;;17.35;11.35;;;9.50;87.90;;;;;;5093388;28;20139;-12
2023/01/09 07:44:51;;;;;;;14.48;10.93;;;9.50;88.00;;;;;;5093287;28;20027;-13
2023/01/09 07:47:17;;;;;;;19.90;11.90;;;9.50;88.00;;;;;;5093711;28;20133;-12
2023/01/09 07:49:43;;;;;;;16.55;11.13;;;9.50;87.90;;;;;;5093241;28;20380;-12
2023/01/09 07:52:09;;;;;;;17.25;9.48;;;9.50;87.90;;;;;;5093520;28;20422;-12
2023/01/09 07:54:35;;;;;;;18.98;10.18;;;9.50;87.90;;;;;;5093157;28;20506;-14
2023/01/09 07:57:00;;;;;;;22.10;11.73;;;9.60;87.90;;;;;;5093136;28;20035;-12
2023/01/09 07:59:28;;;;;;;18.63;10.57;;;9.60;87.80;;;;;;5093071;28;20046;-12
2023/01/09 08:01:55;;;;;;;15.77;8.90;;;9.60;87.80;;;;;;5093063;28;20127;-12
2023/01/09 08:04:21;;;;;;;16.48;9.95;;;9.70;87.80;;;;;;5092966;28;20058;-12
2023/01/09 08:06:47;;;;;;;19.42;10.32;;;9.70;87.70;;;;;;5092848;28;20031;-13
2023/01/09 08:09:13;;;;;;;17.52;9.98;;;9.70;87.70;;;;;;5093207;28;20024;-13
2023/01/09 08:11:40;;;;;;;15.88;8.48;;;9.80;87.70;;;;;;5093257;28;20071;-13
2023/01/09 08:14:06;;;;;;;11.40;7.28;;;9.80;87.60;;;;;;5092803;28;20537;-13
2023/01/09 08:16:32;;;;;;;15.13;8.95;;;9.80;87.50;;;;;;5092756;28;20039;-12
2023/01/09 08:18:58;;;;;;;18.38;11.27;;;9.80;87.40;;;;;;5092708;28;20031;-13
2023/01/09 08:21:24;;;;;;;15.23;9.35;;;9.80;87.30;;;;;;5093070;28;20024;-13
2023/01/09 08:23:50;;;;;;;15.48;9.80;;;9.70;87.20;;;;;;5092692;28;20093;-13
2023/01/09 08:26:17;;;;;;;14.70;8.93;;;9.70;87.30;;;;;;5092746;28;20468;-12
2023/01/09 08:28:43;;;;;;;14.85;10.60;;;9.70;87.30;;;;;;5092652;28;20032;-13
2023/01/09 08:31:09;;;;;;;14.85;11.60;;;9.70;87.40;;;;;;5092223;28;20016;-13
2023/01/09 08:33:34;;;;;;;17.13;10.98;;;9.70;87.40;;;;;;5092871;28;20054;-12
2023/01/09 08:36:00;;;;;;;20.17;11.00;;;9.70;87.50;;;;;;5092529;28;20032;-12
2023/01/09 08:38:26;;;;;;;14.25;9.77;;;9.70;87.40;;;;;;5092691;28;20038;-15
2023/01/09 08:40:52;;;;;;;15.05;9.27;;;9.80;87.50;;;;;;5091081;28;20028;-12
2023/01/09 08:48:49;;;;;;;;;;;9.90;87.30;;;;;;5092843;28;20034;-11
2023/01/09 08:51:15;;;;;;;12.15;7.68;;;9.90;87.20;;;;;;5092923;28;19910;-12
2023/01/09 08:53:41;;;;;;;12.55;7.82;;;10.00;87.10;;;;;;5092563;28;20095;-12
2023/01/09 08:56:07;;;;;;;18.88;11.48;;;10.00;87.00;;;;;;5092250;28;20379;-12
2023/01/09 08:58:33;;;;;;;11.60;7.25;;;10.10;86.90;;;;;;5092321;28;20021;-13
2023/01/09 09:00:59;;;;;;;11.93;7.57;;;10.10;86.80;;;;;;5091151;28;20062;-12
2023/01/09 09:03:25;;;;;;;12.75;7.65;;;10.10;86.80;;;;;;5091159;28;20410;-12
2023/01/09 09:05:51;;;;;;;11.55;7.50;;;10.10;86.80;;;;;;5090968;28;20123;-12
2023/01/09 09:08:16;;;;;;;10.05;6.65;;;10.20;86.50;;;;;;5092441;28;20039;-12
2023/01/09 09:10:42;;;;;;;13.15;8.02;;;10.20;86.50;;;;;;5092199;28;20107;-13
2023/01/09 09:13:08;;;;;;;11.68;7.53;;;10.30;86.20;;;;;;5091935;28;20045;-12
2023/01/09 09:15:36;;;;;;;11.05;7.25;;;10.40;85.90;;;;;;5092391;28;20452;-13
2023/01/09 09:18:05;;;;;;;10.20;6.78;;;10.40;85.70;;;;;;5092127;28;20040;-12
2023/01/09 09:20:34;;;;;;;10.70;6.47;;;10.40;85.60;;;;;;5092437;28;20017;-13
2023/01/09 09:23:00;;;;;;;9.68;6.25;;;10.40;85.70;;;;;;5091833;28;20434;-13
2023/01/09 09:25:27;;;;;;;9.38;5.45;;;10.50;85.60;;;;;;5092062;28;20024;-13
2023/01/09 09:27:55;;;;;;;8.38;5.82;;;10.60;85.40;;;;;;5092048;28;20479;-13
2023/01/09 09:30:22;;;;;;;10.02;6.38;;;10.60;85.40;;;;;;5092428;28;20125;-13
2023/01/09 09:32:48;;;;;;;10.35;6.47;;;10.60;85.20;;;;;;5091506;28;20488;-13
2023/01/09 09:35:16;;;;;;;10.65;5.95;;;10.60;84.90;;;;;;5091939;28;20020;-12
2023/01/09 09:37:42;;;;;;;10.18;6.78;;;10.60;84.90;;;;;;5092272;28;20036;-10
2023/01/09 09:40:46;;;;;;;9.68;6.28;;;10.60;84.90;;;;;;5091841;28;20024;-12
2023/01/09 09:46:37;;;;;;;11.82;6.78;;;10.50;84.70;;;;;;5093767;28;20039;-12
2023/01/09 09:49:15;;;;;;;12.35;6.03;;;10.40;84.70;;;;;;5095754;28;20132;-12
2023/01/09 09:51:56;;;;;;;9.05;5.25;;;10.40;84.80;;;;;;5095623;28;20027;-12
2023/01/09 09:54:38;;;;;;;9.27;6.28;;;10.40;84.90;;;;;;5095544;28;20062;-13
2023/01/09 09:57:05;;;;;;;8.63;5.57;;;10.40;85.00;;;;;;5095530;28;20032;-12
2023/01/09 09:59:35;;;;;;;11.63;6.93;;;10.60;85.00;;;;;;5095282;28;20085;-12
2023/01/09 10:02:09;;;;;;;12.07;7.57;;;10.60;85.00;;;;;;5095750;28;20027;-12
2023/01/09 10:04:41;;;;;;;14.02;8.75;;;10.70;84.90;;;;;;5095624;28;20080;-13
2023/01/09 10:07:17;;;;;;;12.15;7.45;;;10.80;84.90;;;;;;5093691;28;20388;-11
2023/01/09 10:09:54;;;;;;;8.27;5.50;;;10.90;84.70;;;;;;5095064;28;20031;-12
2023/01/09 10:12:30;;;;;;;7.30;5.40;;;11.00;84.40;;;;;;5093886;28;20352;-12
2023/01/09 10:15:17;;;;;;;8.32;5.65;;;11.10;83.80;;;;;;5094757;28;20039;-12
2023/01/09 10:21:27;;;;;;;9.70;6.28;;;11.30;83.40;;;;;;5087178;27;20416;-11
2023/01/09 10:24:12;;;;;;;11.55;7.07;;;11.40;82.90;;;;;;5089865;28;20032;-11
2023/01/09 10:26:40;;;;;;;8.82;4.90;;;11.50;82.80;;;;;;5090160;28;20036;-11
2023/01/09 10:29:25;;;;;;;8.63;4.60;;;11.60;82.40;;;;;;5089631;28;20056;-11
2023/01/09 10:32:15;;;;;;;8.20;5.40;;;11.90;82.20;;;;;;5089745;28;20452;-12
2023/01/09 10:35:18;;;;;;;6.47;4.25;;;12.40;82.50;;;;;;5089860;28;20511;-12
2023/01/09 10:37:46;;;;;;;5.35;3.40;;;12.90;81.40;;;;;;5089713;28;20119;-12
2023/01/09 10:40:54;;;;;;;6.07;4.00;;;13.20;79.60;;;;;;5089883;28;20028;-13
2023/01/09 10:43:27;;;;;;;7.07;4.15;;;13.30;79.50;;;;;;5088001;28;20028;-12
2023/01/09 10:46:00;;;;;;;7.50;3.90;;;13.30;78.90;;;;;;5087521;28;20048;-12
2023/01/09 10:48:34;;;;;;;6.43;4.10;;;13.20;79.10;;;;;;5087674;28;20043;-12
2023/01/09 10:50:59;;;;;;;;;;;13.10;79.10;;;;;;5087628;28;20139;-12
2023/01/09 10:53:34;;;;;;;5.10;3.40;;;13.10;78.90;;;;;;5087221;28;19940;-12
2023/01/09 10:56:06;;;;;;;7.85;4.68;;;13.10;78.50;;;;;;5087399;28;20028;-13
2023/01/09 10:58:32;;;;;;;7.45;4.40;;;13.00;78.10;;;;;;5087433;28;20107;-12
2023/01/09 11:01:00;;;;;;;13.25;7.18;;;12.90;78.60;;;;;;5086968;28;20119;-13
2023/01/09 11:03:27;;;;;;;11.02;5.70;;;12.90;78.90;;;;;;5087103;28;20111;-12
2023/01/09 11:05:56;;;;;;;11.73;6.15;;;12.80;79.10;;;;;;5086985;28;20388;-12
2023/01/09 11:08:26;;;;;;;8.57;5.38;;;12.70;79.30;;;;;;5087428;28;20115;-11
2023/01/09 11:10:57;;;;;;;12.13;6.20;;;12.70;79.50;;;;;;5086697;28;20031;-11
2023/01/09 11:13:35;;;;;;;9.60;5.18;;;12.70;79.60;;;;;;5087486;28;20082;-11
2023/01/09 11:16:10;;;;;;;6.22;4.38;;;12.60;79.70;;;;;;5089382;28;20028;-12
2023/01/09 11:18:57;;;;;;;5.45;3.50;;;12.60;79.70;;;;;;5088409;28;20077;-11
2023/01/09 11:21:40;;;;;;;6.88;4.03;;;12.70;79.30;;;;;;5088983;28;20035;-11
2023/01/09 11:24:18;;;;;;;6.90;4.13;;;12.60;79.50;;;;;;5088782;28;20417;-12
2023/01/09 11:26:45;;;;;;;7.63;4.57;;;12.60;79.10;;;;;;5088854;28;20258;-12
2023/01/09 11:29:14;;;;;;;6.70;4.70;;;12.60;79.20;;;;;;5088676;28;20078;-13
2023/01/09 11:31:41;;;;;;;8.63;4.90;;;12.60;79.30;;;;;;5078835;28;20085;-11
2023/01/09 11:34:25;;;;;;;7.95;4.85;;;12.50;79.60;;;;;;5075137;28;20082;-12
2023/01/09 11:37:03;;;;;;;8.77;4.75;;;12.50;79.30;;;;;;5074979;28;20456;-12
2023/01/09 11:39:31;;;;;;;7.47;4.90;;;12.50;78.80;;;;;;5075266;28;20060;-12
2023/01/09 11:42:00;;;;;;;8.07;5.30;;;12.40;78.90;;;;;;5074976;28;20016;-12
2023/01/09 11:44:29;;;;;;;10.77;6.63;;;12.30;79.00;;;;;;5074911;28;20024;-11
2023/01/09 11:46:55;;;;;;;15.13;8.63;;;12.20;79.00;;;;;;5074739;28;20552;-11
2023/01/09 11:49:24;;;;;;;15.23;7.93;;;12.10;79.50;;;;;;5090336;28;20436;-11
2023/01/09 11:52:19;;;;;;;11.65;6.85;;;11.90;79.80;;;;;;5074844;28;20021;-12
2023/01/09 11:54:49;;;;;;;11.13;7.10;;;11.90;80.20;;;;;;5072681;28;20094;-12
2023/01/09 11:57:15;;;;;;;12.75;7.40;;;11.80;80.50;;;;;;5072737;28;20032;-13
2023/01/09 11:59:42;;;;;;;13.63;7.75;;;11.80;80.60;;;;;;5072772;28;20567;-12
2023/01/09 12:02:27;;;;;;;12.77;8.07;;;11.70;80.90;;;;;;5072579;28;20055;-12
2023/01/09 12:04:55;;;;;;;11.38;7.25;;;11.60;81.10;;;;;;5072320;28;20471;-12
2023/01/09 12:07:29;;;;;;;10.85;6.93;;;11.50;81.30;;;;;;5072368;28;20431;-11
2023/01/09 12:10:17;;;;;;;12.85;8.30;;;11.40;81.50;;;;;;5072281;28;20065;-12
2023/01/09 12:13:19;;;;;;;11.88;7.32;;;11.40;81.80;;;;;;5073123;28;20033;-12
2023/01/09 12:15:47;;;;;;;12.73;8.13;;;11.40;82.10;;;;;;5072175;28;20649;-12
2023/01/09 12:18:34;;;;;;;14.02;9.00;;;11.30;82.30;;;;;;5072428;28;20035;-12
2023/01/09 12:21:36;;;;;;;15.55;8.63;;;11.30;82.40;;;;;;5072301;28;20547;-13
2023/01/09 12:24:19;;;;;;;13.57;9.27;;;11.20;82.60;;;;;;5072033;28;20040;-13
2023/01/09 12:27:00;;;;;;;15.18;9.30;;;11.10;82.60;;;;;;5072239;28;20025;-11
2023/01/09 12:30:00;;;;;;;12.65;8.07;;;10.90;82.80;;;;;;5072499;28;20123;-11
2023/01/09 12:32:47;;;;;;;12.27;7.95;;;10.80;83.00;;;;;;5063979;28;20021;-12
2023/01/09 12:35:29;;;;;;;14.00;8.43;;;10.70;83.10;;;;;;5074435;28;20047;-12
2023/01/09 12:38:20;;;;;;;11.98;8.60;;;10.70;83.10;;;;;;5074162;28;20393;-12
2023/01/09 12:41:21;;;;;;;16.00;10.55;;;10.60;83.00;;;;;;5073852;28;20033;-13
2023/01/09 12:44:04;;;;;;;19.25;12.10;;;10.50;83.10;;;;;;5061271;28;20492;-12
2023/01/09 12:46:41;;;;;;;23.73;13.05;;;10.40;83.30;;;;;;5074323;28;20098;-12
2023/01/09 12:49:31;;;;;;;20.10;10.32;;;10.40;83.40;;;;;;5073766;28;20075;-12
2023/01/09 12:52:27;;;;;;;14.65;8.90;;;10.40;83.40;;;;;;5074128;28;20021;-12
2023/01/09 12:55:08;;;;;;;16.10;9.88;;;10.40;83.20;;;;;;5073510;28;20032;-12
2023/01/09 12:57:42;;;;;;;18.15;10.32;;;10.30;83.10;;;;;;5074177;28;20506;-12
2023/01/09 13:00:26;;;;;;;19.15;10.48;;;10.30;83.30;;;;;;5073786;28;20448;-12
2023/01/09 13:03:09;;;;;;;27.48;13.65;;;10.20;83.30;;;;;;5073536;28;20025;-13
2023/01/09 13:05:41;;;;;;;19.17;11.35;;;10.20;83.40;;;;;;5074152;28;20048;-12
2023/01/09 13:08:17;;;;;;;16.20;9.80;;;10.10;83.50;;;;;;5073752;28;20380;-11
2023/01/09 13:10:50;;;;;;;18.60;10.70;;;10.10;83.60;;;;;;5073546;28;20047;-12
2023/01/09 13:13:29;;;;;;;15.65;9.40;;;10.10;83.60;;;;;;5073728;28;20020;-11
2023/01/09 13:16:03;;;;;;;16.00;9.52;;;10.00;83.70;;;;;;5073746;28;20112;-12
2023/01/09 13:18:57;;;;;;;23.50;12.85;;;10.00;83.90;;;;;;5073351;28;20476;-12
2023/01/09 13:21:23;;;;;;;21.33;12.52;;;10.10;83.90;;;;;;5073519;28;20234;-12